sensor_id;sensor_type;location;lat;lon;timestamp;pressure;altitude;pressure_sealevel;temperature;humidity
48027;BME280;50714;49.208;5.364;2022-12-29T00:01:59;98708.13;;;10.35;100.00
48027;BME280;50714;49.208;5.364;2022-12-29T00:12:00;98685.50;;;10.36;99.99
48027;BME280;50714;49.208;5.364;2022-12-29T00:22:01;98671.81;;;10.37;99.45
48027;BME280;50714;49.208;5.364;2022-12-29T00:32:20;98664.91;;;10.41;98.56
48027;BME280;50714;49.208;5.364;2022-12-29T00:42:39;98663.03;;;10.42;98.38
48027;BME280;50714;49.208;5.364;2022-12-29T00:52:58;98638.16;;;10.40;98.39
48027;BME280;50714;49.208;5.364;2022-12-29T01:02:58;98638.41;;;10.38;98.55
48027;BME280;50714;49.208;5.364;2022-12-29T01:12:58;98625.47;;;10.40;97.18
48027;BME280;50714;49.208;5.364;2022-12-29T01:22:59;98612.59;;;10.42;95.23
48027;BME280;50714;49.208;5.364;2022-12-29T01:32:59;98606.31;;;10.48;94.96
48027;BME280;50714;49.208;5.364;2022-12-29T01:43:00;98615.00;;;10.50;93.93
48027;BME280;50714;49.208;5.364;2022-12-29T01:53:27;98600.19;;;10.59;93.04
48027;BME280;50714;49.208;5.364;2022-12-29T02:03:27;98622.88;;;10.70;91.96
48027;BME280;50714;49.208;5.364;2022-12-29T02:13:29;98607.22;;;10.79;90.95
48027;BME280;50714;49.208;5.364;2022-12-29T02:54:48;98581.47;;;10.94;88.34
48027;BME280;50714;49.208;5.364;2022-12-29T03:05:12;98587.38;;;11.03;86.59
48027;BME280;50714;49.208;5.364;2022-12-29T03:15:22;98577.78;;;11.07;87.26
48027;BME280;50714;49.208;5.364;2022-12-29T03:25:46;98565.69;;;11.10;87.33
48027;BME280;50714;49.208;5.364;2022-12-29T03:35:50;98569.78;;;11.12;87.27
48027;BME280;50714;49.208;5.364;2022-12-29T03:45:52;98539.63;;;11.15;87.36
48027;BME280;50714;49.208;5.364;2022-12-29T03:55:52;98546.19;;;11.08;87.34
48027;BME280;50714;49.208;5.364;2022-12-29T04:05:52;98542.31;;;11.04;87.61
48027;BME280;50714;49.208;5.364;2022-12-29T04:15:53;98547.84;;;11.09;88.71
48027;BME280;50714;49.208;5.364;2022-12-29T04:25:53;98562.25;;;11.03;90.96
48027;BME280;50714;49.208;5.364;2022-12-29T04:35:54;98553.16;;;10.85;92.45
48027;BME280;50714;49.208;5.364;2022-12-29T04:45:54;98541.47;;;10.73;93.53
48027;BME280;50714;49.208;5.364;2022-12-29T04:55:55;98553.88;;;10.63;94.85
48027;BME280;50714;49.208;5.364;2022-12-29T05:05:56;98560.38;;;10.55;95.45
48027;BME280;50714;49.208;5.364;2022-12-29T05:15:56;98574.41;;;10.45;96.09
48027;BME280;50714;49.208;5.364;2022-12-29T05:25:57;98565.09;;;10.41;96.28
48027;BME280;50714;49.208;5.364;2022-12-29T05:36:04;98568.41;;;10.43;96.47
48027;BME280;50714;49.208;5.364;2022-12-29T05:46:04;98568.63;;;10.42;96.05
48027;BME280;50714;49.208;5.364;2022-12-29T05:56:05;98581.88;;;10.43;96.28
48027;BME280;50714;49.208;5.364;2022-12-29T06:06:06;98591.03;;;10.42;96.92
48027;BME280;50714;49.208;5.364;2022-12-29T06:16:07;98585.63;;;10.42;97.21
48027;BME280;50714;49.208;5.364;2022-12-29T06:26:07;98601.59;;;10.44;96.72
48027;BME280;50714;49.208;5.364;2022-12-29T06:36:07;98617.09;;;10.48;96.38
48027;BME280;50714;49.208;5.364;2022-12-29T06:46:08;98647.38;;;10.50;96.92
48027;BME280;50714;49.208;5.364;2022-12-29T06:56:08;98634.19;;;10.42;96.81
48027;BME280;50714;49.208;5.364;2022-12-29T07:06:09;98645.56;;;10.26;96.06
48027;BME280;50714;49.208;5.364;2022-12-29T07:16:10;98652.81;;;10.25;97.72
48027;BME280;50714;49.208;5.364;2022-12-29T07:26:12;98704.28;;;10.24;99.18
48027;BME280;50714;49.208;5.364;2022-12-29T07:36:15;98698.78;;;10.06;96.22
48027;BME280;50714;49.208;5.364;2022-12-29T07:46:15;98721.44;;;9.98;94.71
48027;BME280;50714;49.208;5.364;2022-12-29T07:56:16;98722.88;;;10.01;94.59
48027;BME280;50714;49.208;5.364;2022-12-29T08:06:16;98738.63;;;10.04;94.51
48027;BME280;50714;49.208;5.364;2022-12-29T08:16:16;98752.72;;;10.06;94.38
48027;BME280;50714;49.208;5.364;2022-12-29T08:26:17;98781.53;;;10.05;94.75
48027;BME280;50714;49.208;5.364;2022-12-29T08:36:17;98783.38;;;10.11;94.80
48027;BME280;50714;49.208;5.364;2022-12-29T08:46:18;98783.72;;;10.21;94.89
48027;BME280;50714;49.208;5.364;2022-12-29T08:56:18;98786.56;;;10.33;94.35
48027;BME280;50714;49.208;5.364;2022-12-29T09:06:19;98801.63;;;10.41;94.08
48027;BME280;50714;49.208;5.364;2022-12-29T09:16:21;98789.06;;;10.59;93.76
48027;BME280;50714;49.208;5.364;2022-12-29T09:26:22;98804.13;;;10.67;93.47
48027;BME280;50714;49.208;5.364;2022-12-29T09:36:22;98801.09;;;10.82;93.86
48027;BME280;50714;49.208;5.364;2022-12-29T09:46:27;98820.53;;;10.90;93.03
48027;BME280;50714;49.208;5.364;2022-12-29T09:56:27;98817.50;;;11.05;92.37
48027;BME280;50714;49.208;5.364;2022-12-29T10:06:54;98827.53;;;11.16;90.31
48027;BME280;50714;49.208;5.364;2022-12-29T10:17:04;98812.03;;;11.30;90.31
48027;BME280;50714;49.208;5.364;2022-12-29T10:27:12;98847.66;;;11.20;89.42
48027;BME280;50714;49.208;5.364;2022-12-29T10:37:32;98862.16;;;11.26;87.65
48027;BME280;50714;49.208;5.364;2022-12-29T10:47:47;98842.56;;;11.31;86.54
48027;BME280;50714;49.208;5.364;2022-12-29T10:57:51;98837.31;;;11.36;85.34
48027;BME280;50714;49.208;5.364;2022-12-29T11:07:55;98840.16;;;11.41;84.17
48027;BME280;50714;49.208;5.364;2022-12-29T11:17:58;98847.28;;;11.35;84.42
48027;BME280;50714;49.208;5.364;2022-12-29T11:28:04;98859.69;;;11.43;84.01
48027;BME280;50714;49.208;5.364;2022-12-29T11:38:22;98851.44;;;11.56;83.52
48027;BME280;50714;49.208;5.364;2022-12-29T11:48:29;98856.25;;;11.90;83.37
48027;BME280;50714;49.208;5.364;2022-12-29T11:58:34;98840.25;;;12.19;83.47
48027;BME280;50714;49.208;5.364;2022-12-29T12:08:53;98840.72;;;12.16;80.62
48027;BME280;50714;49.208;5.364;2022-12-29T12:19:02;98834.69;;;12.02;80.92
48027;BME280;50714;49.208;5.364;2022-12-29T12:29:17;98838.53;;;11.94;80.20
48027;BME280;50714;49.208;5.364;2022-12-29T12:50:12;98840.16;;;11.95;79.54
48027;BME280;50714;49.208;5.364;2022-12-29T13:00:16;98848.72;;;11.92;78.76
48027;BME280;50714;49.208;5.364;2022-12-29T13:10:25;98838.22;;;11.66;78.05
48027;BME280;50714;49.208;5.364;2022-12-29T13:20:47;98836.28;;;11.55;77.25
48027;BME280;50714;49.208;5.364;2022-12-29T13:41:12;98865.41;;;11.53;77.15
48027;BME280;50714;49.208;5.364;2022-12-29T13:51:14;98867.19;;;11.41;77.08
48027;BME280;50714;49.208;5.364;2022-12-29T14:01:29;98862.81;;;11.21;76.29
48027;BME280;50714;49.208;5.364;2022-12-29T14:11:38;98884.38;;;11.03;77.96
48027;BME280;50714;49.208;5.364;2022-12-29T14:21:39;98886.31;;;10.96;78.20
48027;BME280;50714;49.208;5.364;2022-12-29T14:31:40;98891.31;;;10.92;78.69
48027;BME280;50714;49.208;5.364;2022-12-29T14:41:41;98882.84;;;10.89;78.82
48027;BME280;50714;49.208;5.364;2022-12-29T14:51:41;98869.44;;;10.76;79.08
48027;BME280;50714;49.208;5.364;2022-12-29T15:01:50;98867.31;;;10.59;78.89
48027;BME280;50714;49.208;5.364;2022-12-29T15:11:55;98866.00;;;10.37;79.31
48027;BME280;50714;49.208;5.364;2022-12-29T15:21:56;98891.38;;;10.23;80.16
48027;BME280;50714;49.208;5.364;2022-12-29T15:32:02;98888.13;;;10.08;80.40
48027;BME280;50714;49.208;5.364;2022-12-29T15:42:23;98889.00;;;9.95;81.17
48027;BME280;50714;49.208;5.364;2022-12-29T15:52:26;98906.28;;;9.74;81.67
48027;BME280;50714;49.208;5.364;2022-12-29T16:02:27;98917.53;;;9.51;82.58
48027;BME280;50714;49.208;5.364;2022-12-29T16:12:35;98934.97;;;9.42;83.54
48027;BME280;50714;49.208;5.364;2022-12-29T16:22:39;98937.47;;;9.31;83.95
48027;BME280;50714;49.208;5.364;2022-12-29T16:32:46;98926.47;;;9.26;83.96
48027;BME280;50714;49.208;5.364;2022-12-29T16:42:46;98936.03;;;9.02;84.03
48027;BME280;50714;49.208;5.364;2022-12-29T16:52:49;98935.41;;;8.93;84.29
48027;BME280;50714;49.208;5.364;2022-12-29T17:02:53;98943.47;;;8.86;84.62
48027;BME280;50714;49.208;5.364;2022-12-29T17:12:55;98950.09;;;8.84;85.49
48027;BME280;50714;49.208;5.364;2022-12-29T17:22:56;98959.19;;;8.76;84.97
48027;BME280;50714;49.208;5.364;2022-12-29T17:33:03;98974.50;;;8.76;85.19
48027;BME280;50714;49.208;5.364;2022-12-29T17:43:04;98973.25;;;8.78;85.40
48027;BME280;50714;49.208;5.364;2022-12-29T17:53:09;98977.19;;;8.76;85.65
48027;BME280;50714;49.208;5.364;2022-12-29T18:03:14;98975.53;;;8.75;85.55
48027;BME280;50714;49.208;5.364;2022-12-29T18:13:27;98978.44;;;8.73;85.23
48027;BME280;50714;49.208;5.364;2022-12-29T18:23:30;98993.13;;;8.71;85.42
48027;BME280;50714;49.208;5.364;2022-12-29T18:33:34;98997.25;;;8.67;85.52
48027;BME280;50714;49.208;5.364;2022-12-29T18:43:34;99008.19;;;8.59;85.45
48027;BME280;50714;49.208;5.364;2022-12-29T18:53:34;99029.47;;;8.47;85.87
48027;BME280;50714;49.208;5.364;2022-12-29T19:03:36;99041.03;;;8.41;85.46
48027;BME280;50714;49.208;5.364;2022-12-29T19:13:37;99049.63;;;8.30;86.15
48027;BME280;50714;49.208;5.364;2022-12-29T19:23:38;99051.66;;;8.28;86.35
48027;BME280;50714;49.208;5.364;2022-12-29T19:33:39;99078.97;;;8.25;86.57
48027;BME280;50714;49.208;5.364;2022-12-29T19:43:39;99088.41;;;8.14;86.20
48027;BME280;50714;49.208;5.364;2022-12-29T19:53:40;99105.13;;;8.09;86.78
48027;BME280;50714;49.208;5.364;2022-12-29T20:03:40;99105.44;;;7.93;86.69
48027;BME280;50714;49.208;5.364;2022-12-29T20:13:41;99110.38;;;7.90;87.10
48027;BME280;50714;49.208;5.364;2022-12-29T20:23:42;99136.75;;;7.79;86.63
48027;BME280;50714;49.208;5.364;2022-12-29T20:33:43;99152.75;;;7.66;86.48
48027;BME280;50714;49.208;5.364;2022-12-29T20:43:44;99160.22;;;7.71;86.11
48027;BME280;50714;49.208;5.364;2022-12-29T20:53:44;99167.47;;;7.70;85.28
48027;BME280;50714;49.208;5.364;2022-12-29T21:03:45;99179.06;;;7.56;85.36
48027;BME280;50714;49.208;5.364;2022-12-29T21:13:46;99185.25;;;7.50;85.82
48027;BME280;50714;49.208;5.364;2022-12-29T21:23:47;99188.31;;;7.47;86.01
48027;BME280;50714;49.208;5.364;2022-12-29T21:33:48;99181.84;;;7.63;85.67
48027;BME280;50714;49.208;5.364;2022-12-29T21:43:49;99181.38;;;7.59;85.47
48027;BME280;50714;49.208;5.364;2022-12-29T21:54:08;99198.66;;;7.50;85.16
48027;BME280;50714;49.208;5.364;2022-12-29T22:04:27;99193.03;;;7.45;85.29
48027;BME280;50714;49.208;5.364;2022-12-29T22:14:46;99187.56;;;7.38;85.44
48027;BME280;50714;49.208;5.364;2022-12-29T22:24:47;99198.66;;;7.29;85.69
48027;BME280;50714;49.208;5.364;2022-12-29T22:34:47;99212.44;;;7.26;86.18
48027;BME280;50714;49.208;5.364;2022-12-29T22:44:47;99214.84;;;7.21;86.11
48027;BME280;50714;49.208;5.364;2022-12-29T22:54:48;99242.84;;;6.97;84.79
48027;BME280;50714;49.208;5.364;2022-12-29T23:04:48;99251.88;;;6.37;84.98
48027;BME280;50714;49.208;5.364;2022-12-29T23:14:48;99256.00;;;6.25;86.32
48027;BME280;50714;49.208;5.364;2022-12-29T23:24:49;99242.06;;;6.29;86.89
48027;BME280;50714;49.208;5.364;2022-12-29T23:34:49;99243.63;;;6.38;88.62
48027;BME280;50714;49.208;5.364;2022-12-29T23:44:50;99264.81;;;6.48;89.09
48027;BME280;50714;49.208;5.364;2022-12-29T23:54:50;99268.50;;;6.47;89.43
